Terminal Aerodrome Forecast
Issued by NWS Central Illinois

Home | Current Version | Previous Version | Text Only | Print | Product List | Glossary On
Versions: 1 2 3 4 5 6 7 8 9 10 11 12 13 14
000
FTUS43 KILX 191130
TAFSPI
TAF
KSPI 191130Z 1912/2012 09006KT P6SM SCT060 OVC120
     FM191300 08007KT P6SM VCSH OVC050
     FM191500 04008KT 4SM -RA BR OVC025
     FM200300 25007KT 5SM BR VCSH OVC035=

USA.gov is the U.S. government's official web portal to all federal, state and local government web resources and services.